Aviation Digital Data Service (ADDS)

Output produced by METARs form (1749 UTC 18 November 2017)
found at http://aviationweather.gov/adds/metars/
 
KAEX 181728Z 1818/1918 23022G29KT P6SM FEW030 BKN040 
     FM181900 25015G23KT P6SM VCSH OVC025 
     TEMPO 1821/1822 4SM -SHRA 
     FM182200 32014G20KT P6SM VCSH SCT030 OVC060 
     FM190100 34014G22KT P6SM FEW060 SCT200 
     FM191400 36015G20KT P6SM SKC